Time;durP1;ratioP1;P1;durP2;ratioP2;P2;SDS_P1;SDS_P2;PMS_P1;PMS_P2;Temp;Humidity;BMP_temperature;BMP_pressure;BME280_temperature;BME280_humidity;BME280_pressure;Samples;Min_cycle;Max_cycle;Signal;HPM_P1;HPM_P2
2022/02/16 00:00:45;;;;;;;1.65;0.70;;;7.20;77.10;;;;;;5124052;27;20173;-71
2022/02/16 00:03:14;;;;;;;0.75;0.35;;;7.20;77.20;;;;;;5138149;27;20085;-71
2022/02/16 00:05:41;;;;;;;1.95;0.85;;;7.20;77.30;;;;;;5138211;27;20039;-70
2022/02/16 00:08:12;;;;;;;2.05;0.60;;;7.20;77.40;;;;;;5137780;27;20785;-70
2022/02/16 00:10:39;;;;;;;2.40;0.43;;;7.20;77.40;;;;;;5128553;27;20049;-71
2022/02/16 00:13:07;;;;;;;4.40;0.70;;;7.20;77.50;;;;;;5127164;27;20061;-71
2022/02/16 00:15:35;;;;;;;0.73;0.50;;;7.30;77.50;;;;;;5127425;27;20993;-72
2022/02/16 00:18:04;;;;;;;1.88;0.50;;;7.30;77.50;;;;;;5128688;27;20544;-70
2022/02/16 00:20:33;;;;;;;0.98;0.50;;;7.20;77.60;;;;;;5126904;27;20064;-71
2022/02/16 00:23:05;;;;;;;2.53;0.60;;;7.20;77.60;;;;;;5126225;27;20119;-71
2022/02/16 00:25:32;;;;;;;3.85;0.55;;;7.20;77.60;;;;;;5124757;27;20065;-71
2022/02/16 00:27:59;;;;;;;1.08;0.30;;;7.20;77.70;;;;;;5106800;27;20546;-70
2022/02/16 00:30:26;;;;;;;0.70;0.40;;;7.20;77.60;;;;;;5122428;27;20035;-71
2022/02/16 00:32:53;;;;;;;1.85;0.65;;;7.20;77.60;;;;;;5123936;27;20047;-72
2022/02/16 00:35:21;;;;;;;0.60;0.52;;;7.20;77.60;;;;;;5125117;27;20592;-71
2022/02/16 00:37:51;;;;;;;1.15;0.50;;;7.20;77.60;;;;;;5126502;27;20095;-69
2022/02/16 00:40:19;;;;;;;2.20;0.60;;;7.20;77.60;;;;;;5126740;27;20286;-70
2022/02/16 00:42:46;;;;;;;1.08;0.47;;;7.30;77.70;;;;;;5125357;27;20053;-70
2022/02/16 00:45:13;;;;;;;1.42;0.50;;;7.30;77.60;;;;;;5106057;27;20078;-70
2022/02/16 00:47:41;;;;;;;1.23;0.45;;;7.20;77.70;;;;;;5123589;27;20038;-72
2022/02/16 00:50:10;;;;;;;3.83;0.63;;;7.30;77.80;;;;;;5124717;27;20496;-70
2022/02/16 00:52:40;;;;;;;2.85;0.88;;;7.30;77.80;;;;;;5107665;27;20054;-71
2022/02/16 00:55:13;;;;;;;1.00;0.40;;;7.20;77.90;;;;;;5108316;27;20387;-70
2022/02/16 00:57:39;;;;;;;1.25;0.50;;;7.20;77.90;;;;;;5125990;27;20472;-71
2022/02/16 01:00:08;;;;;;;3.20;0.60;;;7.20;77.90;;;;;;5125356;27;20057;-69
2022/02/16 01:02:44;;;;;;;3.15;0.60;;;7.30;78.00;;;;;;5110923;27;20055;-70
2022/02/16 01:05:14;;;;;;;3.22;0.50;;;7.30;78.10;;;;;;5126056;27;20077;-70
2022/02/16 01:07:42;;;;;;;;;;;7.30;78.10;;;;;;5108429;27;20051;-71
2022/02/16 01:10:13;;;;;;;1.73;0.50;;;7.30;78.00;;;;;;5110289;27;19927;-70
2022/02/16 01:12:46;;;;;;;2.05;0.60;;;7.30;78.10;;;;;;5107350;27;20127;-69
2022/02/16 01:15:14;;;;;;;5.20;0.85;;;7.30;78.20;;;;;;5112492;27;20077;-70
2022/02/16 01:17:43;;;;;;;2.88;0.60;;;7.30;78.30;;;;;;5104672;28;20478;-70
2022/02/16 01:20:38;;;;;;;1.20;0.43;;;7.30;78.30;;;;;;5101919;27;20047;-69
2022/02/16 01:23:10;;;;;;;4.05;0.50;;;7.30;78.40;;;;;;5107643;27;20055;-70
2022/02/16 01:25:42;;;;;;;1.23;0.30;;;7.30;78.60;;;;;;5107061;28;20564;-70
2022/02/16 01:28:29;;;;;;;2.00;0.77;;;7.30;78.70;;;;;;5107566;28;20433;-70
2022/02/16 01:30:57;;;;;;;4.68;0.70;;;7.30;78.70;;;;;;5107606;28;20100;-70
2022/02/16 01:33:30;;;;;;;1.23;0.40;;;7.30;78.90;;;;;;5121452;27;20076;-70
2022/02/16 01:35:58;;;;;;;3.65;0.60;;;7.30;79.10;;;;;;5109899;28;20492;-70
2022/02/16 01:38:25;;;;;;;1.75;0.47;;;7.20;79.30;;;;;;5104195;27;20091;-71
2022/02/16 01:41:17;;;;;;;2.33;0.50;;;7.30;79.30;;;;;;5097346;28;20139;-70
2022/02/16 01:43:53;;;;;;;1.55;0.57;;;7.30;79.40;;;;;;5107177;28;20595;-71
2022/02/16 01:46:21;;;;;;;0.63;0.35;;;7.20;79.50;;;;;;5102318;27;20048;-70
2022/02/16 01:48:51;;;;;;;2.28;0.77;;;7.30;79.50;;;;;;5108677;28;20051;-70
2022/02/16 01:51:19;;;;;;;4.07;0.70;;;7.20;79.80;;;;;;5108949;27;20067;-70
2022/02/16 01:53:47;;;;;;;3.10;0.68;;;7.20;79.80;;;;;;5104410;27;20050;-70
2022/02/16 01:56:16;;;;;;;2.22;0.68;;;7.20;80.00;;;;;;5104537;27;20050;-71
2022/02/16 01:58:46;;;;;;;4.88;0.57;;;7.20;80.00;;;;;;5115140;27;20159;-71
2022/02/16 02:01:19;;;;;;;1.63;0.50;;;7.20;80.20;;;;;;5110194;27;20655;-70
2022/02/16 02:03:55;;;;;;;2.28;0.57;;;7.20;80.20;;;;;;5111107;27;20044;-72
2022/02/16 02:06:22;;;;;;;1.75;0.75;;;7.20;80.40;;;;;;5114467;27;20047;-69
2022/02/16 02:08:51;;;;;;;1.30;0.45;;;7.20;80.50;;;;;;5106187;27;20053;-70
2022/02/16 02:11:23;;;;;;;1.70;0.50;;;7.20;80.60;;;;;;5110601;27;20043;-70
2022/02/16 02:13:59;;;;;;;3.13;0.55;;;7.20;80.80;;;;;;5114824;27;20180;-70
2022/02/16 02:16:54;;;;;;;1.77;0.50;;;7.20;81.00;;;;;;5121193;27;21605;-71
2022/02/16 02:19:22;;;;;;;1.45;0.40;;;7.20;81.00;;;;;;5124292;27;20059;-70
2022/02/16 02:21:56;;;;;;;3.00;0.52;;;7.10;81.10;;;;;;5120782;27;20055;-70
2022/02/16 02:24:23;;;;;;;1.25;0.45;;;7.20;81.10;;;;;;5109329;27;20556;-70
2022/02/16 02:26:54;;;;;;;4.47;0.47;;;7.20;81.10;;;;;;5109735;27;20471;-69
2022/02/16 02:29:21;;;;;;;1.35;0.32;;;7.20;81.20;;;;;;5127539;27;20043;-70
2022/02/16 02:31:58;;;;;;;1.15;0.40;;;7.10;81.40;;;;;;5112040;27;21466;-70
2022/02/16 02:34:25;;;;;;;1.85;0.35;;;7.10;81.50;;;;;;5124159;27;20043;-70
2022/02/16 02:36:54;;;;;;;2.80;0.70;;;7.10;81.60;;;;;;5134049;27;20070;-70
2022/02/16 02:39:23;;;;;;;1.15;0.40;;;7.10;81.70;;;;;;5125274;27;20475;-70
2022/02/16 02:41:50;;;;;;;2.72;0.68;;;7.10;81.80;;;;;;5131729;27;20074;-71
2022/02/16 02:44:20;;;;;;;0.90;0.47;;;7.10;81.80;;;;;;5129656;27;20050;-70
2022/02/16 02:46:48;;;;;;;;;;;7.10;82.00;;;;;;5119337;27;20101;-70
2022/02/16 02:49:18;;;;;;;1.98;0.70;;;7.10;82.00;;;;;;5114997;27;20359;-70
2022/02/16 02:51:46;;;;;;;0.65;0.30;;;7.10;82.10;;;;;;5110834;27;20046;-70
2022/02/16 02:54:21;;;;;;;2.45;0.60;;;7.10;82.00;;;;;;5109176;27;20120;-70
2022/02/16 02:56:48;;;;;;;2.72;0.57;;;7.10;82.10;;;;;;5130766;27;20595;-69
2022/02/16 02:59:16;;;;;;;2.58;0.45;;;7.10;82.10;;;;;;5109754;27;20043;-69
2022/02/16 03:01:47;;;;;;;1.02;0.38;;;7.10;82.20;;;;;;5118619;27;20520;-70
2022/02/16 03:04:16;;;;;;;1.92;0.75;;;7.10;82.30;;;;;;5127559;27;20042;-70
2022/02/16 03:06:48;;;;;;;1.02;0.50;;;7.10;82.40;;;;;;5128329;27;20046;-69
2022/02/16 03:09:15;;;;;;;2.30;0.50;;;7.10;82.40;;;;;;5108621;27;20557;-68
2022/02/16 03:11:47;;;;;;;0.75;0.30;;;7.10;82.50;;;;;;5114024;27;20043;-69
2022/02/16 03:14:15;;;;;;;0.65;0.28;;;7.10;82.60;;;;;;5113096;27;20495;-69
2022/02/16 03:16:42;;;;;;;6.00;1.20;;;7.10;82.60;;;;;;5108329;27;20497;-69
2022/02/16 03:19:09;;;;;;;1.20;0.40;;;7.10;82.50;;;;;;5108784;27;20042;-70
2022/02/16 03:21:36;;;;;;;1.95;0.50;;;7.10;82.60;;;;;;5110105;27;21074;-71
2022/02/16 03:24:07;;;;;;;3.08;0.82;;;7.10;82.60;;;;;;5111269;27;20885;-71
2022/02/16 03:26:35;;;;;;;0.55;0.30;;;7.10;82.80;;;;;;5127428;27;20151;-70
2022/02/16 03:29:04;;;;;;;1.88;0.60;;;7.10;82.80;;;;;;5113036;27;20051;-69
2022/02/16 03:31:36;;;;;;;1.05;0.40;;;7.10;83.00;;;;;;5115624;27;20101;-69
2022/02/16 03:34:06;;;;;;;2.10;0.57;;;7.10;82.90;;;;;;5113583;27;20748;-70
2022/02/16 03:36:44;;;;;;;1.42;0.52;;;7.10;83.10;;;;;;5129997;27;20047;-69
2022/02/16 03:39:13;;;;;;;1.00;0.40;;;7.00;83.10;;;;;;5137381;27;20516;-70
2022/02/16 03:41:42;;;;;;;0.73;0.40;;;7.10;83.10;;;;;;5115189;27;20047;-70
2022/02/16 03:44:13;;;;;;;1.88;0.60;;;7.10;83.30;;;;;;5125753;27;20045;-69
2022/02/16 03:46:47;;;;;;;0.57;0.30;;;7.00;83.30;;;;;;5124117;27;20054;-69
2022/02/16 03:49:15;;;;;;;0.82;0.30;;;7.10;83.40;;;;;;5105317;27;20161;-69
2022/02/16 03:51:43;;;;;;;3.25;0.50;;;7.00;83.60;;;;;;5106295;27;20054;-69
2022/02/16 03:54:16;;;;;;;2.67;0.88;;;7.00;83.50;;;;;;5110988;27;20042;-69
2022/02/16 03:56:44;;;;;;;1.02;0.40;;;7.00;83.50;;;;;;5108738;27;20062;-70
2022/02/16 03:59:16;;;;;;;1.55;0.40;;;7.10;83.50;;;;;;5110162;27;20209;-71
2022/02/16 04:02:02;;;;;;;0.82;0.82;;;7.00;83.60;;;;;;5121462;27;20062;-69
2022/02/16 04:04:30;;;;;;;2.05;0.40;;;7.00;83.70;;;;;;5126275;27;20035;-69
2022/02/16 04:06:58;;;;;;;1.25;0.40;;;7.10;83.60;;;;;;5107955;27;20055;-71
2022/02/16 04:09:25;;;;;;;0.88;0.45;;;7.00;83.60;;;;;;5106177;27;20137;-70
2022/02/16 04:11:56;;;;;;;3.35;0.40;;;7.00;83.70;;;;;;5104060;27;20058;-70
2022/02/16 04:14:25;;;;;;;1.80;0.40;;;7.00;83.70;;;;;;5107454;27;20150;-70
2022/02/16 04:16:53;;;;;;;0.73;0.30;;;7.00;83.80;;;;;;5104725;27;20150;-71
2022/02/16 04:19:20;;;;;;;1.38;0.30;;;7.00;83.80;;;;;;5126944;27;20142;-70
2022/02/16 04:21:48;;;;;;;0.77;0.40;;;7.00;84.00;;;;;;5108732;27;20042;-71
2022/02/16 04:24:15;;;;;;;1.08;0.30;;;7.00;83.90;;;;;;5126483;27;20502;-70
2022/02/16 04:26:43;;;;;;;0.43;0.30;;;7.00;84.10;;;;;;5106454;27;20487;-69
2022/02/16 04:29:13;;;;;;;1.80;0.40;;;7.00;84.10;;;;;;5100997;27;20047;-70
2022/02/16 04:31:44;;;;;;;0.65;0.35;;;7.00;84.10;;;;;;5109490;27;20043;-71
2022/02/16 04:34:15;;;;;;;0.98;0.40;;;7.00;84.10;;;;;;5111298;27;20137;-70
2022/02/16 04:36:43;;;;;;;0.75;0.40;;;7.00;84.10;;;;;;5109111;27;20641;-73
2022/02/16 04:39:12;;;;;;;1.63;0.60;;;7.00;84.10;;;;;;5107153;27;20175;-71
2022/02/16 04:41:42;;;;;;;0.38;0.22;;;7.10;84.30;;;;;;5102522;27;20122;-71
2022/02/16 04:44:12;;;;;;;1.50;0.30;;;7.00;84.30;;;;;;5101525;27;20047;-71
2022/02/16 04:46:48;;;;;;;1.73;0.45;;;7.00;84.30;;;;;;5109640;27;20058;-69
2022/02/16 04:49:16;;;;;;;1.40;0.30;;;7.00;84.30;;;;;;5107447;27;21010;-70
2022/02/16 04:51:43;;;;;;;1.23;0.40;;;7.00;84.40;;;;;;5100854;27;20047;-71
2022/02/16 04:54:10;;;;;;;0.70;0.30;;;7.00;84.40;;;;;;5103597;27;20043;-71
2022/02/16 04:56:37;;;;;;;0.93;0.30;;;7.00;84.40;;;;;;5108583;27;20058;-72
2022/02/16 04:59:06;;;;;;;0.43;0.25;;;7.10;84.40;;;;;;5109830;27;20046;-71
2022/02/16 05:01:33;;;;;;;0.30;0.30;;;7.00;84.40;;;;;;5109838;27;20053;-71
2022/02/16 05:04:04;;;;;;;1.80;0.50;;;7.00;84.50;;;;;;5120350;27;20119;-72
2022/02/16 05:06:37;;;;;;;0.40;0.15;;;7.00;84.50;;;;;;5120244;27;20102;-70
2022/02/16 05:09:06;;;;;;;0.52;0.40;;;7.10;84.50;;;;;;5102597;27;20138;-70
2022/02/16 05:11:33;;;;;;;0.73;0.20;;;7.10;84.60;;;;;;5121370;27;20464;-70
2022/02/16 05:14:05;;;;;;;2.28;0.40;;;7.10;84.70;;;;;;5107079;27;20047;-70
2022/02/16 05:16:34;;;;;;;1.90;0.30;;;7.00;84.70;;;;;;5122214;27;20031;-71
2022/02/16 05:19:03;;;;;;;1.13;0.65;;;7.00;84.80;;;;;;5121150;27;20055;-71
2022/02/16 05:21:39;;;;;;;0.65;0.32;;;7.10;84.80;;;;;;5106826;27;20062;-70
2022/02/16 05:24:11;;;;;;;1.00;0.40;;;7.00;84.90;;;;;;5098468;27;20050;-72
2022/02/16 05:26:40;;;;;;;0.30;0.22;;;7.00;84.90;;;;;;5102944;27;20523;-71
2022/02/16 05:29:08;;;;;;;0.80;0.35;;;7.10;84.90;;;;;;5099526;27;20051;-70
2022/02/16 05:31:38;;;;;;;1.65;0.35;;;7.00;85.00;;;;;;5105659;27;20559;-70
2022/02/16 05:34:07;;;;;;;1.05;0.50;;;7.00;85.00;;;;;;5102536;27;20080;-70
2022/02/16 05:36:36;;;;;;;0.82;0.38;;;7.10;85.10;;;;;;5104967;27;20057;-72
2022/02/16 05:39:04;;;;;;;0.65;0.25;;;7.10;85.00;;;;;;5113431;27;20515;-70
2022/02/16 05:41:33;;;;;;;1.63;0.30;;;7.10;85.10;;;;;;5105459;27;20502;-71
2022/02/16 05:44:00;;;;;;;2.28;0.52;;;7.00;85.10;;;;;;5113003;27;20047;-71
2022/02/16 05:46:32;;;;;;;0.20;0.20;;;7.10;85.10;;;;;;5102564;27;20043;-70
2022/02/16 05:48:59;;;;;;;2.30;0.40;;;7.00;85.20;;;;;;5123210;27;20051;-71
2022/02/16 05:51:31;;;;;;;0.88;0.80;;;7.10;85.30;;;;;;5124119;27;20129;-69
2022/02/16 05:54:01;;;;;;;1.23;0.60;;;7.10;85.40;;;;;;5105821;27;20051;-71
2022/02/16 05:56:31;;;;;;;0.57;0.38;;;7.10;85.40;;;;;;5107687;27;20035;-70
2022/02/16 05:59:11;;;;;;;1.15;0.30;;;7.10;85.40;;;;;;5129237;27;20494;-71
2022/02/16 06:01:42;;;;;;;3.60;0.85;;;7.10;85.40;;;;;;5107600;27;20058;-71
2022/02/16 06:04:12;;;;;;;0.60;0.40;;;7.10;85.40;;;;;;5108351;27;22646;-71
2022/02/16 06:06:41;;;;;;;1.07;0.60;;;7.10;85.50;;;;;;5108888;27;20057;-70
2022/02/16 06:09:10;;;;;;;0.73;0.30;;;7.10;85.40;;;;;;5103060;27;20052;-72
2022/02/16 06:11:39;;;;;;;0.93;0.52;;;7.10;85.40;;;;;;5120432;27;20507;-72
2022/02/16 06:14:12;;;;;;;1.35;0.60;;;7.10;85.30;;;;;;5112093;27;20469;-71
2022/02/16 06:16:41;;;;;;;1.02;0.40;;;7.10;85.40;;;;;;5102825;27;20138;-70
2022/02/16 06:19:09;;;;;;;0.85;0.38;;;7.10;85.30;;;;;;5103295;27;20058;-72
2022/02/16 06:21:38;;;;;;;0.70;0.40;;;7.10;85.40;;;;;;5108288;27;20043;-72
2022/02/16 06:24:15;;;;;;;0.85;0.32;;;7.10;85.50;;;;;;5111074;27;20046;-72
2022/02/16 06:26:46;;;;;;;0.80;0.43;;;7.10;85.50;;;;;;5113334;27;20062;-71
2022/02/16 06:29:13;;;;;;;0.95;0.50;;;7.10;85.40;;;;;;5112938;27;20771;-71
2022/02/16 06:31:59;;;;;;;1.75;0.55;;;7.10;85.40;;;;;;5108188;27;20042;-72
2022/02/16 06:34:26;;;;;;;1.63;0.70;;;7.10;85.40;;;;;;5111050;27;20143;-70
2022/02/16 06:36:55;;;;;;;0.85;0.47;;;7.10;85.40;;;;;;5107711;27;20090;-70
2022/02/16 06:39:23;;;;;;;0.68;0.38;;;7.10;85.40;;;;;;5105113;27;20054;-71
2022/02/16 06:41:51;;;;;;;1.15;0.40;;;7.20;85.40;;;;;;5114455;27;20039;-71
2022/02/16 06:44:18;;;;;;;3.30;0.80;;;7.10;85.30;;;;;;5109026;27;20047;-72
2022/02/16 06:46:45;;;;;;;1.58;0.50;;;7.20;85.30;;;;;;5125356;27;20170;-71
2022/02/16 06:49:12;;;;;;;2.75;0.70;;;7.20;85.30;;;;;;5115114;27;20135;-70
2022/02/16 06:51:43;;;;;;;0.88;0.47;;;7.20;85.40;;;;;;5120807;27;20508;-71
2022/02/16 06:54:11;;;;;;;1.65;0.63;;;7.20;85.40;;;;;;5106750;27;20401;-71
2022/02/16 06:56:39;;;;;;;2.65;1.15;;;7.20;85.40;;;;;;5103891;27;20039;-72
2022/02/16 06:59:25;;;;;;;5.15;0.93;;;7.20;85.50;;;;;;5108742;27;20042;-72
2022/02/16 07:01:57;;;;;;;2.38;0.60;;;7.20;85.40;;;;;;5104937;27;20054;-72
2022/02/16 07:04:27;;;;;;;0.63;0.40;;;7.20;85.40;;;;;;5121896;27;20056;-70
2022/02/16 07:06:55;;;;;;;0.85;0.47;;;7.20;85.40;;;;;;5103132;27;20416;-71
2022/02/16 07:09:24;;;;;;;2.30;0.93;;;7.20;85.40;;;;;;5100662;27;20058;-71
2022/02/16 07:11:56;;;;;;;1.73;0.60;;;7.20;85.40;;;;;;5117898;27;20104;-71
2022/02/16 07:14:29;;;;;;;3.17;0.90;;;7.20;85.40;;;;;;5099743;27;20070;-69
2022/02/16 07:16:59;;;;;;;2.00;0.52;;;7.20;85.40;;;;;;5112083;27;20407;-70
2022/02/16 07:19:28;;;;;;;0.65;0.43;;;7.20;85.30;;;;;;5105724;27;20046;-72
2022/02/16 07:22:14;;;;;;;0.65;0.40;;;7.20;85.30;;;;;;5100842;27;20043;-70
2022/02/16 07:24:41;;;;;;;0.30;0.20;;;7.30;85.30;;;;;;5103160;27;20496;-70
2022/02/16 07:27:09;;;;;;;0.68;0.38;;;7.30;85.30;;;;;;5102835;27;20057;-71
2022/02/16 07:29:43;;;;;;;4.03;1.02;;;7.30;85.20;;;;;;5121513;27;20049;-71
2022/02/16 07:32:14;;;;;;;0.85;0.20;;;7.30;85.30;;;;;;5098415;27;20056;-72
2022/02/16 07:34:42;;;;;;;1.77;0.60;;;7.30;85.20;;;;;;5116213;27;20092;-71
2022/02/16 07:37:12;;;;;;;0.98;0.55;;;7.30;85.20;;;;;;5103555;27;20419;-72
2022/02/16 07:39:42;;;;;;;0.20;0.20;;;7.40;85.20;;;;;;5091718;27;20047;-71
2022/02/16 07:42:17;;;;;;;0.95;0.40;;;7.30;85.20;;;;;;5104575;27;20046;-71
2022/02/16 07:45:01;;;;;;;0.20;0.20;;;7.30;85.20;;;;;;5106654;27;20047;-70
2022/02/16 07:47:29;;;;;;;0.70;0.35;;;7.30;85.20;;;;;;5103293;27;20054;-70
2022/02/16 07:50:06;;;;;;;1.05;0.30;;;7.40;85.20;;;;;;5104885;27;20070;-70
2022/02/16 07:52:37;;;;;;;1.35;0.70;;;7.40;85.30;;;;;;5120006;27;20170;-72
2022/02/16 07:55:12;;;;;;;0.85;0.32;;;7.40;85.20;;;;;;5107251;27;20055;-72
2022/02/16 07:57:43;;;;;;;0.40;0.30;;;7.40;85.20;;;;;;5117958;27;20046;-72
2022/02/16 08:00:12;;;;;;;3.83;0.40;;;7.40;85.20;;;;;;5100744;27;20042;-71
2022/02/16 08:02:55;;;;;;;1.33;0.47;;;7.50;85.20;;;;;;5107778;27;20072;-70
2022/02/16 08:05:22;;;;;;;0.70;0.50;;;7.40;85.30;;;;;;5105393;27;20693;-71
2022/02/16 08:07:50;;;;;;;1.35;0.40;;;7.40;85.20;;;;;;5099705;27;20421;-71
2022/02/16 08:10:19;;;;;;;1.25;0.30;;;7.50;85.40;;;;;;5104910;27;20051;-71
2022/02/16 08:12:52;;;;;;;1.10;0.35;;;7.50;85.40;;;;;;5117381;27;20074;-70
2022/02/16 08:15:20;;;;;;;1.75;0.20;;;7.50;85.40;;;;;;5103509;27;20583;-72
2022/02/16 08:17:50;;;;;;;0.68;0.28;;;7.50;85.50;;;;;;5100502;27;20051;-72
2022/02/16 08:20:18;;;;;;;0.57;0.30;;;7.50;85.50;;;;;;5100720;27;20743;-72
2022/02/16 08:23:15;;;;;;;2.47;0.30;;;7.40;85.60;;;;;;5077268;27;20418;-71
2022/02/16 08:25:43;;;;;;;0.95;0.30;;;7.40;85.70;;;;;;5098792;27;20047;-70
2022/02/16 08:28:18;;;;;;;1.38;0.35;;;7.50;85.70;;;;;;5100956;27;20511;-71
2022/02/16 08:30:46;;;;;;;1.23;0.70;;;7.50;85.70;;;;;;5100518;27;20093;-73
2022/02/16 08:33:21;;;;;;;0.73;0.45;;;7.50;85.90;;;;;;5115971;27;20048;-71
2022/02/16 08:35:58;;;;;;;0.80;0.30;;;7.50;85.80;;;;;;5106642;27;20138;-72
2022/02/16 08:38:25;;;;;;;0.25;0.20;;;7.50;85.80;;;;;;5098270;27;20039;-70
2022/02/16 08:40:59;;;;;;;1.10;0.50;;;7.50;85.90;;;;;;5098444;27;20043;-73
2022/02/16 08:43:30;;;;;;;0.63;0.30;;;7.50;86.00;;;;;;5098231;27;20053;-72
2022/02/16 08:45:58;;;;;;;1.65;0.47;;;7.50;85.90;;;;;;5099053;27;20506;-71
2022/02/16 08:48:27;;;;;;;2.08;0.82;;;7.50;85.90;;;;;;5098461;27;20492;-71
2022/02/16 08:50:57;;;;;;;1.63;0.60;;;7.60;86.00;;;;;;5101705;27;20058;-71
2022/02/16 08:53:26;;;;;;;;;;;7.60;86.00;;;;;;5098428;27;20047;-71
2022/02/16 08:55:53;;;;;;;1.75;0.63;;;7.60;86.00;;;;;;5101724;27;21865;-71
2022/02/16 08:58:21;;;;;;;2.05;0.45;;;7.60;86.00;;;;;;5097867;27;20167;-73
2022/02/16 09:00:57;;;;;;;2.20;0.40;;;7.60;86.00;;;;;;5096423;27;20056;-72
2022/02/16 09:03:25;;;;;;;0.40;0.30;;;7.60;85.90;;;;;;5098309;27;20047;-71
2022/02/16 09:05:55;;;;;;;0.90;0.35;;;7.60;85.90;;;;;;5097171;27;20577;-72
2022/02/16 09:08:22;;;;;;;0.90;0.75;;;7.60;85.80;;;;;;5097029;27;20102;-71
2022/02/16 09:10:49;;;;;;;0.30;0.30;;;7.60;85.90;;;;;;5100383;27;21962;-70
2022/02/16 09:13:17;;;;;;;1.02;0.40;;;7.70;85.80;;;;;;5099129;27;20039;-72
2022/02/16 09:15:44;;;;;;;1.02;0.55;;;7.70;85.80;;;;;;5110356;27;20051;-71
2022/02/16 09:18:15;;;;;;;0.52;0.20;;;7.70;85.80;;;;;;5123738;27;20145;-71
2022/02/16 09:20:46;;;;;;;;;;;7.70;85.70;;;;;;5131050;27;20548;-71
2022/02/16 09:23:14;;;;;;;1.55;0.40;;;7.70;85.50;;;;;;5122074;27;19933;-72
2022/02/16 09:25:42;;;;;;;0.20;0.20;;;7.70;85.60;;;;;;5120701;27;20047;-71
2022/02/16 09:28:09;;;;;;;0.50;0.20;;;7.70;85.60;;;;;;5120651;27;20059;-70
2022/02/16 09:30:36;;;;;;;2.33;0.30;;;7.70;85.50;;;;;;5120040;27;20202;-72
2022/02/16 09:33:05;;;;;;;0.90;0.50;;;7.70;85.60;;;;;;5119198;27;20135;-72
2022/02/16 09:35:36;;;;;;;0.50;0.20;;;7.80;85.70;;;;;;5120062;27;20127;-72
2022/02/16 09:38:03;;;;;;;;;;;7.80;85.80;;;;;;5122745;27;20059;-71
2022/02/16 09:40:31;;;;;;;1.13;0.30;;;7.80;85.90;;;;;;5100748;27;19923;-73
2022/02/16 09:43:02;;;;;;;0.50;0.32;;;7.80;85.90;;;;;;5120103;27;20050;-71
2022/02/16 09:45:31;;;;;;;0.35;0.20;;;7.80;85.90;;;;;;5121590;27;20806;-71
2022/02/16 09:47:58;;;;;;;1.48;0.60;;;7.80;85.90;;;;;;5122096;27;20038;-70
2022/02/16 09:50:25;;;;;;;1.85;0.20;;;7.80;86.00;;;;;;5126848;27;20150;-72
2022/02/16 09:52:54;;;;;;;1.20;0.40;;;7.80;86.00;;;;;;5125887;27;20049;-71
2022/02/16 09:55:21;;;;;;;0.73;0.30;;;7.80;85.90;;;;;;5125056;27;20066;-72
2022/02/16 09:57:49;;;;;;;1.42;0.35;;;7.90;85.90;;;;;;5125348;27;20837;-73
2022/02/16 10:00:17;;;;;;;0.50;0.20;;;7.90;86.00;;;;;;5118856;27;20043;-72
2022/02/16 10:02:46;;;;;;;0.55;0.17;;;7.90;85.90;;;;;;5121594;27;20039;-73
2022/02/16 10:05:15;;;;;;;1.30;0.40;;;7.90;86.00;;;;;;5119381;27;20495;-71
2022/02/16 10:07:44;;;;;;;0.43;0.15;;;7.90;85.90;;;;;;5120032;27;20087;-70
2022/02/16 10:10:19;;;;;;;0.95;0.45;;;7.90;86.00;;;;;;5121016;27;20043;-71
2022/02/16 10:12:50;;;;;;;0.50;0.30;;;7.90;86.10;;;;;;5119830;27;20047;-71
2022/02/16 10:15:18;;;;;;;;;;;7.90;86.00;;;;;;5118613;27;20046;-70
2022/02/16 10:17:45;;;;;;;1.55;0.40;;;8.00;86.10;;;;;;5118516;27;19926;-73
2022/02/16 10:20:16;;;;;;;1.63;0.32;;;7.90;86.00;;;;;;5119979;27;20045;-72
2022/02/16 10:22:46;;;;;;;0.20;0.20;;;7.90;86.20;;;;;;5120360;27;20043;-70
2022/02/16 10:25:20;;;;;;;0.52;0.30;;;7.90;86.30;;;;;;5122611;27;20046;-70
2022/02/16 10:28:12;;;;;;;1.98;0.35;;;8.00;86.30;;;;;;5107551;27;20061;-72
2022/02/16 10:30:54;;;;;;;0.90;0.40;;;8.00;86.50;;;;;;5121536;27;20066;-71
2022/02/16 10:33:25;;;;;;;0.30;0.20;;;8.00;86.40;;;;;;5123240;27;20042;-70
2022/02/16 10:36:01;;;;;;;0.82;0.22;;;8.10;86.50;;;;;;5122997;27;20039;-70
2022/02/16 10:38:30;;;;;;;0.32;0.22;;;8.10;86.70;;;;;;5122685;27;20043;-73
2022/02/16 10:41:04;;;;;;;1.92;0.35;;;8.00;86.80;;;;;;5122649;27;20050;-70
2022/02/16 10:43:41;;;;;;;0.85;0.40;;;8.10;86.90;;;;;;5129044;27;20035;-71
2022/02/16 10:46:20;;;;;;;1.00;0.50;;;8.10;87.00;;;;;;5130137;27;20050;-71
2022/02/16 10:48:47;;;;;;;0.47;0.30;;;8.10;87.10;;;;;;5121741;27;20146;-72
2022/02/16 10:51:20;;;;;;;1.63;0.28;;;8.10;87.20;;;;;;5122819;27;20122;-72
2022/02/16 10:53:50;;;;;;;0.75;0.30;;;8.00;87.40;;;;;;5120407;27;20042;-71
2022/02/16 10:56:18;;;;;;;1.15;0.55;;;8.00;87.40;;;;;;5123082;27;20038;-70
2022/02/16 10:58:46;;;;;;;1.10;0.40;;;8.00;87.50;;;;;;5120096;27;20057;-73
2022/02/16 11:01:13;;;;;;;0.68;0.40;;;8.00;87.50;;;;;;5123271;27;20043;-71
2022/02/16 11:03:47;;;;;;;0.40;0.30;;;8.10;87.40;;;;;;5119757;27;20036;-70
2022/02/16 11:06:15;;;;;;;0.30;0.28;;;8.10;87.40;;;;;;5122763;27;20154;-72
2022/02/16 11:08:46;;;;;;;0.80;0.40;;;8.10;87.50;;;;;;5121198;27;20194;-69
2022/02/16 11:11:17;;;;;;;0.70;0.30;;;8.10;87.50;;;;;;5109838;27;20503;-72
2022/02/16 11:13:46;;;;;;;1.10;0.40;;;8.10;87.70;;;;;;5124690;27;20066;-72
2022/02/16 11:16:13;;;;;;;0.95;0.40;;;8.10;87.60;;;;;;5107101;27;20047;-72
2022/02/16 11:18:49;;;;;;;0.65;0.40;;;8.10;87.60;;;;;;5120623;27;20051;-73
2022/02/16 11:21:18;;;;;;;7.22;1.92;;;8.10;87.60;;;;;;5120784;27;20381;-71
2022/02/16 11:23:49;;;;;;;3.65;1.17;;;8.10;87.60;;;;;;5123592;27;20097;-70
2022/02/16 11:26:35;;;;;;;2.75;0.90;;;8.10;87.70;;;;;;5112457;27;20128;-73
2022/02/16 11:29:08;;;;;;;1.25;0.52;;;8.20;87.70;;;;;;5121134;27;20110;-71
2022/02/16 11:31:38;;;;;;;0.55;0.30;;;8.20;87.60;;;;;;5121228;27;20042;-73
2022/02/16 11:34:18;;;;;;;2.30;0.63;;;8.20;87.70;;;;;;5118171;27;20047;-74
2022/02/16 11:37:05;;;;;;;2.05;0.63;;;8.20;87.70;;;;;;5121591;27;20043;-70
2022/02/16 11:40:00;;;;;;;2.50;0.73;;;8.20;88.00;;;;;;5123929;27;20066;-72
2022/02/16 11:42:52;;;;;;;0.77;0.50;;;8.20;88.00;;;;;;5127285;27;20537;-71
2022/02/16 11:45:38;;;;;;;0.65;0.40;;;8.20;87.90;;;;;;5108443;27;20047;-71
2022/02/16 11:48:13;;;;;;;1.73;0.50;;;8.30;87.90;;;;;;5121112;27;20039;-72
2022/02/16 11:50:42;;;;;;;0.85;0.40;;;8.20;88.00;;;;;;5114954;27;20047;-71
2022/02/16 11:53:12;;;;;;;2.42;0.60;;;8.30;87.90;;;;;;5125869;27;20070;-72
2022/02/16 11:55:42;;;;;;;7.40;1.08;;;8.30;87.90;;;;;;5127457;27;20071;-70
2022/02/16 11:58:22;;;;;;;1.80;0.80;;;8.30;87.90;;;;;;5130099;27;20043;-73
2022/02/16 12:01:08;;;;;;;1.33;0.50;;;8.30;87.90;;;;;;5125010;27;20051;-71
2022/02/16 12:03:49;;;;;;;2.15;0.63;;;8.40;87.90;;;;;;5126990;27;20046;-71
2022/02/16 12:06:21;;;;;;;0.73;0.40;;;8.40;87.80;;;;;;5127872;27;20081;-73
2022/02/16 12:09:12;;;;;;;0.60;0.30;;;8.40;87.90;;;;;;5123306;27;20161;-73
2022/02/16 12:11:40;;;;;;;0.95;0.32;;;8.40;87.80;;;;;;5121065;27;20043;-70
2022/02/16 12:14:15;;;;;;;1.17;0.60;;;8.40;87.80;;;;;;5119776;27;20039;-71
2022/02/16 12:16:53;;;;;;;1.65;0.47;;;8.50;87.80;;;;;;5122034;27;20038;-70
2022/02/16 12:19:22;;;;;;;1.35;0.50;;;8.40;87.80;;;;;;5119236;27;20123;-71
2022/02/16 12:21:56;;;;;;;3.13;1.08;;;8.50;87.80;;;;;;5120416;27;20704;-73
2022/02/16 12:24:28;;;;;;;2.58;0.77;;;8.50;87.80;;;;;;5121582;27;20051;-70
2022/02/16 12:26:58;;;;;;;2.30;0.90;;;8.50;87.80;;;;;;5118318;27;20127;-72
2022/02/16 12:29:30;;;;;;;1.27;0.63;;;8.50;87.90;;;;;;5122988;27;20077;-72
2022/02/16 12:32:03;;;;;;;4.60;1.23;;;8.60;87.80;;;;;;5118796;27;20055;-71
2022/02/16 12:34:33;;;;;;;1.83;0.70;;;8.60;87.80;;;;;;5116655;27;20095;-71
2022/02/16 12:37:03;;;;;;;0.47;0.40;;;8.60;87.90;;;;;;5120647;27;20569;-71
2022/02/16 12:39:33;;;;;;;0.88;0.50;;;8.60;87.90;;;;;;5120220;27;20039;-71
2022/02/16 12:42:05;;;;;;;1.50;0.60;;;8.70;87.80;;;;;;5119594;27;20484;-71
2022/02/16 12:44:33;;;;;;;1.08;0.50;;;8.60;87.70;;;;;;5121230;27;20666;-71
2022/02/16 12:47:03;;;;;;;1.65;0.80;;;8.70;87.80;;;;;;5120697;27;20047;-71
2022/02/16 12:49:31;;;;;;;2.83;0.73;;;8.70;87.80;;;;;;5120430;27;20131;-70
2022/02/16 12:52:01;;;;;;;0.80;0.50;;;8.70;87.70;;;;;;5120475;27;20051;-71
2022/02/16 12:54:33;;;;;;;0.70;0.28;;;8.70;87.80;;;;;;5121315;27;20047;-70
2022/02/16 12:57:03;;;;;;;2.70;0.45;;;8.70;87.80;;;;;;5126851;27;20099;-71
2022/02/16 12:59:36;;;;;;;1.13;0.40;;;8.80;87.70;;;;;;5126917;27;20130;-71
2022/02/16 13:02:20;;;;;;;1.55;0.30;;;8.80;87.70;;;;;;5106095;27;20068;-71
2022/02/16 13:04:52;;;;;;;1.80;0.40;;;8.80;87.70;;;;;;5117735;27;20058;-70
2022/02/16 13:07:20;;;;;;;0.30;0.30;;;8.80;87.70;;;;;;5104289;27;20454;-72
2022/02/16 13:09:51;;;;;;;0.80;0.32;;;8.80;87.70;;;;;;5121041;27;20043;-72
2022/02/16 13:12:34;;;;;;;0.40;0.35;;;8.90;87.60;;;;;;5119475;27;20150;-72
2022/02/16 13:15:04;;;;;;;1.00;0.40;;;8.90;87.50;;;;;;5120620;27;20050;-71
2022/02/16 13:17:34;;;;;;;;;;;8.90;87.60;;;;;;5122754;27;20059;-70